Time;durP1;ratioP1;P1;durP2;ratioP2;P2;SDS_P1;SDS_P2;PMS_P1;PMS_P2;Temp;Humidity;BMP_temperature;BMP_pressure;BME280_temperature;BME280_humidity;BME280_pressure;Samples;Min_cycle;Max_cycle;Signal;HPM_P1;HPM_P2
2022/04/21 00:02:13;;;;;;;5.47;4.27;;;12.70;56.80;;;;;;5076091;28;20461;-47
2022/04/21 00:04:39;;;;;;;4.13;3.57;;;12.70;57.70;;;;;;5081095;28;20471;-47
2022/04/21 00:07:06;;;;;;;4.40;4.00;;;12.70;57.60;;;;;;5079380;28;20463;-47
2022/04/21 00:09:33;;;;;;;4.20;3.80;;;12.70;57.20;;;;;;5073259;28;20467;-47
2022/04/21 00:12:00;;;;;;;4.23;3.40;;;12.70;57.60;;;;;;5083658;28;20473;-47
2022/04/21 00:14:27;;;;;;;4.67;4.13;;;12.60;58.10;;;;;;5077893;28;20457;-47
2022/04/21 00:16:54;;;;;;;4.60;4.20;;;12.50;58.10;;;;;;5079536;28;20963;-46
2022/04/21 00:19:21;;;;;;;4.47;4.07;;;12.50;58.10;;;;;;5083280;28;20455;-46
2022/04/21 00:24:33;;;;;;;4.40;4.00;;;12.50;58.20;;;;;;5083542;28;20461;-47
2022/04/21 00:27:00;;;;;;;3.30;3.00;;;12.40;58.40;;;;;;5082719;28;20452;-47
2022/04/21 00:29:27;;;;;;;4.33;3.93;;;12.40;58.20;;;;;;5088194;28;20474;-47
2022/04/21 00:31:54;;;;;;;4.60;3.33;;;12.40;58.50;;;;;;5088274;28;20459;-46
2022/04/21 00:34:22;;;;;;;3.87;3.50;;;12.40;58.60;;;;;;5081506;28;20471;-47
2022/04/21 00:36:49;;;;;;;6.50;4.23;;;12.30;58.70;;;;;;5087376;28;20489;-47
2022/04/21 00:39:15;;;;;;;5.77;4.20;;;12.30;59.00;;;;;;5082987;28;20520;-47
2022/04/21 00:41:42;;;;;;;5.70;4.73;;;12.20;59.10;;;;;;5082575;28;20494;-47
2022/04/21 00:44:09;;;;;;;4.47;4.07;;;12.20;59.30;;;;;;5085264;28;20451;-47
2022/04/21 00:46:38;;;;;;;5.10;3.73;;;12.10;59.40;;;;;;5081429;28;20481;-46
2022/04/21 00:49:06;;;;;;;7.03;4.57;;;12.10;59.40;;;;;;5081569;28;20532;-47
2022/04/21 00:51:36;;;;;;;4.70;4.30;;;12.00;59.60;;;;;;5084693;28;20957;-47
2022/04/21 00:54:03;;;;;;;5.40;3.73;;;12.00;59.90;;;;;;5082863;28;20493;-47
2022/04/21 00:56:29;;;;;;;5.87;3.97;;;12.00;59.60;;;;;;5080252;28;20570;-47
2022/04/21 00:58:57;;;;;;;5.73;3.90;;;12.00;59.70;;;;;;5082369;28;21074;-47
2022/04/21 01:04:11;;;;;;;4.27;3.87;;;11.90;59.90;;;;;;5082805;28;20516;-47
2022/04/21 01:06:38;;;;;;;5.23;4.40;;;11.80;60.20;;;;;;5082020;28;20458;-47
2022/04/21 01:09:05;;;;;;;6.43;4.27;;;11.80;60.30;;;;;;5083790;28;20448;-47
2022/04/21 01:11:31;;;;;;;4.97;4.20;;;11.70;60.80;;;;;;5082827;28;20460;-47
2022/04/21 01:13:59;;;;;;;4.33;4.00;;;11.70;61.00;;;;;;5081842;28;20468;-47
2022/04/21 01:16:25;;;;;;;4.73;4.27;;;11.70;61.10;;;;;;5078833;28;20799;-47
2022/04/21 01:18:52;;;;;;;5.27;4.33;;;11.60;61.00;;;;;;5082746;28;20582;-47
2022/04/21 01:21:19;;;;;;;6.27;4.57;;;11.60;61.10;;;;;;5085837;28;20982;-47
2022/04/21 01:23:46;;;;;;;5.67;4.27;;;11.50;61.40;;;;;;5083598;28;20517;-47
2022/04/21 01:26:16;;;;;;;4.90;4.40;;;11.50;61.50;;;;;;5082260;28;20472;-47
2022/04/21 01:28:45;;;;;;;3.67;3.37;;;11.50;61.60;;;;;;5083008;28;21171;-47
2022/04/21 01:31:12;;;;;;;4.90;4.20;;;11.40;61.70;;;;;;5082060;28;20655;-47
2022/04/21 01:33:38;;;;;;;4.90;4.10;;;11.40;61.80;;;;;;5079168;28;21036;-47
2022/04/21 01:36:05;;;;;;;5.20;4.70;;;11.40;61.80;;;;;;5080623;28;20848;-47
2022/04/21 01:41:17;;;;;;;6.87;4.53;;;11.30;62.30;;;;;;5082262;28;20459;-47
2022/04/21 01:43:44;;;;;;;5.07;3.90;;;11.30;62.30;;;;;;5079467;28;20971;-47
2022/04/21 01:46:11;;;;;;;8.43;4.60;;;11.30;62.50;;;;;;5080113;28;20493;-47
2022/04/21 01:48:38;;;;;;;4.43;4.03;;;11.20;62.40;;;;;;5080148;28;20460;-47
2022/04/21 01:51:04;;;;;;;6.07;4.40;;;11.20;62.50;;;;;;5083241;28;20471;-47
2022/04/21 01:53:31;;;;;;;7.23;4.97;;;11.10;62.60;;;;;;5077809;28;20464;-47
2022/04/21 01:55:58;;;;;;;4.57;4.17;;;11.10;62.90;;;;;;5081964;28;20495;-47
2022/04/21 01:58:25;;;;;;;4.67;4.20;;;11.00;63.00;;;;;;5081816;28;21009;-47
2022/04/21 02:00:52;;;;;;;4.77;4.37;;;11.00;63.10;;;;;;5083130;28;20466;-47
2022/04/21 02:03:19;;;;;;;4.77;4.13;;;11.00;63.00;;;;;;5080764;28;20844;-47
2022/04/21 02:05:46;;;;;;;5.20;4.37;;;10.90;63.30;;;;;;5084900;28;20463;-47
2022/04/21 02:08:12;;;;;;;5.50;4.37;;;10.90;63.60;;;;;;5081759;28;21000;-47
2022/04/21 02:10:39;;;;;;;5.00;4.23;;;10.90;63.80;;;;;;5078098;28;20460;-47
2022/04/21 02:13:06;;;;;;;4.47;4.07;;;10.80;63.90;;;;;;5080254;28;20529;-47
2022/04/21 02:15:33;;;;;;;4.50;4.10;;;10.80;63.90;;;;;;5082450;28;20491;-47
2022/04/21 02:18:03;;;;;;;4.73;3.83;;;10.80;64.10;;;;;;5082605;28;20474;-46
2022/04/21 02:20:30;;;;;;;7.80;4.80;;;10.80;64.20;;;;;;5077498;28;20466;-46
2022/04/21 02:22:56;;;;;;;5.53;5.03;;;10.70;64.10;;;;;;5079905;28;20465;-46
2022/04/21 02:25:23;;;;;;;5.87;5.27;;;10.70;64.20;;;;;;5082135;28;20455;-46
2022/04/21 02:27:50;;;;;;;5.90;5.00;;;10.70;64.40;;;;;;5080376;28;20463;-43
2022/04/21 02:30:18;;;;;;;4.93;4.53;;;10.60;64.40;;;;;;5074573;28;20456;-43
2022/04/21 02:32:46;;;;;;;4.90;4.40;;;10.60;64.50;;;;;;5082583;28;20962;-43
2022/04/21 02:35:14;;;;;;;4.60;4.20;;;10.60;64.50;;;;;;5075756;28;20475;-43
2022/04/21 02:37:45;;;;;;;5.33;4.40;;;10.50;64.60;;;;;;5078894;28;20457;-43
2022/04/21 02:40:14;;;;;;;5.90;4.90;;;10.50;64.80;;;;;;5074184;28;20843;-44
2022/04/21 02:42:41;;;;;;;5.10;4.60;;;10.40;64.80;;;;;;5081365;28;20460;-44
2022/04/21 02:45:13;;;;;;;5.03;4.63;;;10.50;65.00;;;;;;5076583;28;20551;-46
2022/04/21 02:47:43;;;;;;;5.03;4.53;;;10.40;65.00;;;;;;5080229;28;20841;-44
2022/04/21 02:50:12;;;;;;;7.27;4.87;;;10.40;65.10;;;;;;5081683;28;20496;-44
2022/04/21 02:52:40;;;;;;;5.13;4.67;;;10.30;65.30;;;;;;5069394;28;20448;-44
2022/04/21 02:57:53;;;;;;;4.97;4.47;;;10.30;65.30;;;;;;5075174;28;20474;-44
2022/04/21 03:00:20;;;;;;;6.77;4.97;;;10.30;65.30;;;;;;5082241;28;20455;-44
2022/04/21 03:02:47;;;;;;;6.43;5.00;;;10.20;65.30;;;;;;5076955;28;20949;-44
2022/04/21 03:05:14;;;;;;;4.93;4.53;;;10.20;65.40;;;;;;5077313;28;20533;-44
2022/04/21 03:07:40;;;;;;;6.13;4.90;;;10.20;65.50;;;;;;5077623;28;20450;-44
2022/04/21 03:10:08;;;;;;;5.70;5.20;;;10.20;65.60;;;;;;5076758;28;20463;-44
2022/04/21 03:12:35;;;;;;;5.93;5.00;;;10.10;65.60;;;;;;5075075;28;20464;-44
2022/04/21 03:15:01;;;;;;;6.30;5.30;;;10.10;65.90;;;;;;5079298;28;20621;-44
2022/04/21 03:17:29;;;;;;;5.23;4.73;;;10.00;66.00;;;;;;5079517;28;20474;-44
2022/04/21 03:19:55;;;;;;;6.90;4.67;;;10.00;66.10;;;;;;5076627;28;20459;-45
2022/04/21 03:25:10;;;;;;;5.33;4.93;;;9.90;66.40;;;;;;5078707;28;20463;-44
2022/04/21 03:27:37;;;;;;;6.10;5.50;;;9.90;66.50;;;;;;5063532;28;20500;-44
2022/04/21 03:30:06;;;;;;;5.00;4.47;;;9.90;66.60;;;;;;5079255;28;20940;-44
2022/04/21 03:32:34;;;;;;;5.00;4.47;;;9.90;66.80;;;;;;5074327;28;20483;-44
2022/04/21 03:35:02;;;;;;;4.93;4.53;;;9.80;67.00;;;;;;5079615;28;20960;-44
2022/04/21 03:37:29;;;;;;;4.40;4.00;;;9.80;67.00;;;;;;5079860;28;20490;-44
2022/04/21 03:39:55;;;;;;;6.50;4.47;;;9.80;67.00;;;;;;5078295;28;20475;-44
2022/04/21 03:42:25;;;;;;;8.27;4.67;;;9.80;67.20;;;;;;5081609;28;21008;-44
2022/04/21 03:44:52;;;;;;;5.10;4.60;;;9.80;67.30;;;;;;5075312;28;20520;-44
2022/04/21 03:47:19;;;;;;;6.40;5.70;;;9.70;67.20;;;;;;5076941;28;20470;-44
2022/04/21 03:49:47;;;;;;;7.07;6.37;;;9.70;67.20;;;;;;5082283;28;20480;-44
2022/04/21 03:52:14;;;;;;;7.23;6.53;;;9.70;67.30;;;;;;5076778;28;20454;-44
2022/04/21 03:54:41;;;;;;;7.87;7.07;;;9.60;67.30;;;;;;5079809;28;20458;-44
2022/04/21 03:57:08;;;;;;;6.73;5.80;;;9.60;67.20;;;;;;5079855;28;20491;-44
2022/04/21 03:59:36;;;;;;;6.43;5.83;;;9.60;67.20;;;;;;5079812;28;20458;-44
2022/04/21 04:02:04;;;;;;;7.63;6.27;;;9.50;67.00;;;;;;5079274;28;21452;-44
2022/04/21 04:04:34;;;;;;;7.17;6.47;;;9.50;67.00;;;;;;5080588;28;20459;-44
2022/04/21 04:12:34;;;;;;;9.53;6.87;;;9.40;66.80;;;;;;5078510;28;20566;-44
2022/04/21 04:15:02;;;;;;;5.10;4.47;;;9.30;67.00;;;;;;5077725;28;20468;-44
2022/04/21 04:17:31;;;;;;;6.57;5.17;;;9.30;67.00;;;;;;5078689;28;20902;-44
2022/04/21 04:19:57;;;;;;;7.73;4.97;;;9.30;67.20;;;;;;5076305;28;20567;-44
2022/04/21 04:22:24;;;;;;;6.77;5.40;;;9.20;67.40;;;;;;5083583;28;20465;-44
2022/04/21 04:24:54;;;;;;;7.53;6.63;;;9.20;67.60;;;;;;5085163;28;20469;-44
2022/04/21 04:27:21;;;;;;;6.27;5.43;;;9.20;67.70;;;;;;5077298;28;20455;-44
2022/04/21 04:29:48;;;;;;;6.80;5.37;;;9.20;67.90;;;;;;5080782;28;20947;-44
2022/04/21 04:32:15;;;;;;;5.70;5.17;;;9.20;68.00;;;;;;5084030;28;20491;-44
2022/04/21 04:34:43;;;;;;;6.37;5.47;;;9.20;68.20;;;;;;5080807;28;20460;-44
2022/04/21 04:37:10;;;;;;;6.43;4.83;;;9.20;68.20;;;;;;5080183;28;20495;-44
2022/04/21 04:39:36;;;;;;;6.17;5.57;;;9.10;68.10;;;;;;5083736;28;20447;-44
2022/04/21 04:42:16;;;;;;;8.70;5.17;;;9.10;68.30;;;;;;5078939;28;20451;-44
2022/04/21 04:44:47;;;;;;;6.07;5.53;;;9.10;68.50;;;;;;5076753;28;20456;-45
2022/04/21 04:47:14;;;;;;;5.70;5.10;;;9.10;68.70;;;;;;5084558;28;20471;-44
2022/04/21 04:49:42;;;;;;;7.13;5.43;;;9.10;68.80;;;;;;5077760;28;20467;-44
2022/04/21 04:52:09;;;;;;;6.00;4.97;;;9.10;68.90;;;;;;5078528;28;21034;-44
2022/04/21 04:54:35;;;;;;;5.47;4.80;;;9.10;69.00;;;;;;5079006;28;20456;-44
2022/04/21 04:57:02;;;;;;;9.20;5.07;;;9.10;69.10;;;;;;5092783;28;20498;-45
2022/04/21 04:59:29;;;;;;;7.53;5.80;;;9.10;69.20;;;;;;5078525;28;20466;-44
2022/04/21 05:01:57;;;;;;;5.67;5.03;;;9.10;69.30;;;;;;5080133;28;20451;-44
2022/04/21 05:04:25;;;;;;;5.80;5.20;;;9.10;69.40;;;;;;5081717;28;20459;-44
2022/04/21 05:06:54;;;;;;;6.13;5.30;;;9.10;69.60;;;;;;5077283;28;20471;-44
2022/04/21 05:09:23;;;;;;;5.20;4.70;;;9.10;69.60;;;;;;5078692;28;20474;-44
2022/04/21 05:11:52;;;;;;;6.70;6.00;;;9.10;69.50;;;;;;5083155;28;20479;-44
2022/04/21 05:14:20;;;;;;;7.27;5.90;;;9.10;69.40;;;;;;5076787;28;20882;-44
2022/04/21 05:16:49;;;;;;;5.30;4.67;;;9.10;69.50;;;;;;5076141;28;20487;-44
2022/04/21 05:19:17;;;;;;;6.27;5.50;;;9.10;69.50;;;;;;5081538;28;20554;-44
2022/04/21 05:21:45;;;;;;;5.77;5.17;;;9.10;69.40;;;;;;5077332;28;20465;-44
2022/04/21 05:24:13;;;;;;;6.90;4.70;;;9.20;69.30;;;;;;5078617;28;20471;-44
2022/04/21 05:26:41;;;;;;;6.43;5.73;;;9.20;69.20;;;;;;5076661;28;20494;-44
2022/04/21 05:31:59;;;;;;;7.67;5.53;;;9.20;69.20;;;;;;5078829;28;20475;-44
2022/04/21 05:34:28;;;;;;;6.33;5.73;;;9.20;69.30;;;;;;5079320;28;20964;-44
2022/04/21 05:36:56;;;;;;;14.70;5.03;;;9.20;69.40;;;;;;5081751;28;20487;-44
2022/04/21 05:39:23;;;;;;;7.23;5.53;;;9.20;69.50;;;;;;5074342;28;20465;-44
2022/04/21 05:41:52;;;;;;;6.90;4.80;;;9.20;69.70;;;;;;5079313;28;20999;-44
2022/04/21 05:44:19;;;;;;;5.43;4.93;;;9.30;69.80;;;;;;5081561;28;20835;-44
2022/04/21 05:46:47;;;;;;;9.23;4.97;;;9.30;70.10;;;;;;5082138;28;20941;-44
2022/04/21 05:49:14;;;;;;;7.10;4.97;;;9.30;70.10;;;;;;5079861;28;20463;-44
2022/04/21 05:51:42;;;;;;;6.63;5.53;;;9.30;70.30;;;;;;5080844;28;20465;-44
2022/04/21 05:54:09;;;;;;;6.47;5.60;;;9.40;70.20;;;;;;5073128;28;20794;-44
2022/04/21 05:56:36;;;;;;;7.20;6.57;;;9.40;70.30;;;;;;5077282;28;20490;-44
2022/04/21 05:59:03;;;;;;;6.73;5.90;;;9.50;70.70;;;;;;5082028;28;20456;-44
2022/04/21 06:01:31;;;;;;;7.97;5.90;;;9.50;70.70;;;;;;5076719;28;20980;-44
2022/04/21 06:03:58;;;;;;;7.40;5.60;;;9.60;70.80;;;;;;5081003;28;20825;-44
2022/04/21 06:06:24;;;;;;;7.00;5.83;;;9.70;70.70;;;;;;5077163;28;20447;-44
2022/04/21 06:08:52;;;;;;;8.83;5.50;;;9.80;70.50;;;;;;5079797;28;20455;-44
2022/04/21 06:11:18;;;;;;;5.90;5.30;;;9.80;70.40;;;;;;5081849;28;20481;-44
2022/04/21 06:13:45;;;;;;;6.77;4.90;;;9.90;70.40;;;;;;5074561;28;20451;-44
2022/04/21 06:16:12;;;;;;;15.07;5.73;;;9.90;70.50;;;;;;5073467;28;20459;-44
2022/04/21 06:18:39;;;;;;;5.67;4.40;;;10.00;70.50;;;;;;5078152;28;20995;-44
2022/04/21 06:21:09;;;;;;;9.97;4.70;;;10.10;70.10;;;;;;5077224;28;20499;-44
2022/04/21 06:23:36;;;;;;;6.00;5.40;;;10.10;70.00;;;;;;5078041;28;20456;-44
2022/04/21 06:26:04;;;;;;;7.40;4.67;;;10.20;69.80;;;;;;5077370;28;20444;-44
2022/04/21 06:28:33;;;;;;;6.77;4.97;;;10.30;69.40;;;;;;5079939;28;20539;-44
2022/04/21 06:31:00;;;;;;;7.33;4.80;;;10.40;69.20;;;;;;5078088;28;20496;-44
2022/04/21 06:33:30;;;;;;;6.33;4.63;;;10.50;68.80;;;;;;5075234;28;20480;-44
2022/04/21 06:35:58;;;;;;;6.50;4.93;;;10.60;68.20;;;;;;5074610;28;20832;-44
2022/04/21 06:38:25;;;;;;;10.13;4.87;;;10.80;67.40;;;;;;5077040;28;21110;-44
2022/04/21 06:40:52;;;;;;;7.63;5.03;;;11.00;67.40;;;;;;5073522;28;20488;-44
2022/04/21 06:48:49;;;;;;;5.93;4.77;;;11.30;66.20;;;;;;5077661;28;20849;-44
2022/04/21 06:51:18;;;;;;;5.20;4.70;;;11.50;65.00;;;;;;5077666;28;21004;-44
2022/04/21 06:53:44;;;;;;;5.53;4.43;;;11.60;64.20;;;;;;5075061;28;20503;-44
2022/04/21 06:56:12;;;;;;;4.80;3.77;;;11.70;63.60;;;;;;5079185;28;20551;-44
2022/04/21 06:58:40;;;;;;;6.13;4.00;;;11.90;63.40;;;;;;5077016;28;20543;-43
2022/04/21 07:01:07;;;;;;;5.40;4.10;;;12.00;62.70;;;;;;5078663;28;20461;-44
2022/04/21 07:03:35;;;;;;;6.40;4.27;;;12.10;62.60;;;;;;5076732;28;20469;-43
2022/04/21 07:06:03;;;;;;;4.10;3.50;;;12.20;62.10;;;;;;5076893;28;20828;-44
2022/04/21 07:08:30;;;;;;;6.97;4.60;;;12.40;62.20;;;;;;5074179;28;20824;-44
2022/04/21 07:10:57;;;;;;;6.57;5.03;;;12.50;61.30;;;;;;5076566;28;20470;-44
2022/04/21 07:13:23;;;;;;;7.13;4.83;;;12.60;60.00;;;;;;5078771;28;20460;-43
2022/04/21 07:15:50;;;;;;;5.00;4.20;;;12.70;59.00;;;;;;5072662;28;20472;-44
2022/04/21 07:18:18;;;;;;;5.27;4.53;;;12.80;59.10;;;;;;5080023;28;20492;-44
2022/04/21 07:20:45;;;;;;;8.60;4.60;;;12.90;58.60;;;;;;5074362;28;20551;-44
2022/04/21 07:23:12;;;;;;;6.27;4.40;;;13.00;57.60;;;;;;5076968;28;20882;-44
2022/04/21 07:25:39;;;;;;;6.97;5.30;;;13.10;57.40;;;;;;5075722;28;20553;-44
2022/04/21 07:28:06;;;;;;;4.83;4.37;;;13.20;56.90;;;;;;5079021;28;20460;-44
2022/04/21 07:30:33;;;;;;;4.90;4.50;;;13.20;56.80;;;;;;5082291;28;20926;-44
2022/04/21 07:33:01;;;;;;;5.13;4.17;;;13.40;57.50;;;;;;5082948;28;20465;-44
2022/04/21 07:35:29;;;;;;;10.10;4.17;;;13.50;55.80;;;;;;5080143;28;20460;-44
2022/04/21 07:37:59;;;;;;;5.50;4.00;;;13.60;55.40;;;;;;5082781;28;20489;-44
2022/04/21 07:40:27;;;;;;;4.77;4.27;;;13.80;55.50;;;;;;5081034;28;20467;-44
2022/04/21 07:42:54;;;;;;;7.10;5.20;;;14.00;55.00;;;;;;5080601;28;20455;-44
2022/04/21 07:45:21;;;;;;;4.73;3.93;;;14.10;54.00;;;;;;5079461;28;20470;-44
2022/04/21 07:47:48;;;;;;;8.03;5.13;;;14.20;53.60;;;;;;5080645;28;20451;-44
2022/04/21 07:50:14;;;;;;;6.93;5.20;;;14.30;53.50;;;;;;5078921;28;20475;-44
2022/04/21 07:53:13;;;;;;;4.97;4.30;;;14.50;54.00;;;;;;5084131;28;20463;-44
2022/04/21 07:55:45;;;;;;;5.53;4.63;;;14.70;52.90;;;;;;5076512;28;20460;-44
2022/04/21 07:58:12;;;;;;;8.10;3.60;;;14.80;52.40;;;;;;5080780;28;20485;-44
2022/04/21 08:00:40;;;;;;;5.70;4.60;;;15.00;52.30;;;;;;5081664;28;20676;-49
2022/04/21 08:03:11;;;;;;;4.93;4.23;;;15.20;52.30;;;;;;5083330;28;20471;-44
2022/04/21 08:05:38;;;;;;;5.17;4.77;;;15.40;51.50;;;;;;5080507;28;20468;-44
2022/04/21 08:08:05;;;;;;;6.00;4.17;;;15.50;51.10;;;;;;5087809;28;20466;-44
2022/04/21 08:10:32;;;;;;;5.00;4.33;;;15.70;51.40;;;;;;5079339;28;20835;-44
2022/04/21 08:12:59;;;;;;;5.73;4.20;;;15.70;50.70;;;;;;5080862;28;20462;-44
2022/04/21 08:15:31;;;;;;;4.67;4.23;;;15.80;51.80;;;;;;5077126;28;20465;-44
2022/04/21 08:18:03;;;;;;;4.57;4.10;;;15.90;52.00;;;;;;5083440;28;21009;-43
2022/04/21 08:20:32;;;;;;;5.00;4.60;;;15.90;51.20;;;;;;5081732;28;20495;-44
2022/04/21 08:22:59;;;;;;;9.00;5.37;;;15.90;52.00;;;;;;5080790;28;20493;-45
2022/04/21 08:34:23;;;;;;;6.93;4.33;;;15.70;52.60;;;;;;5077661;28;21014;-45
2022/04/21 08:36:53;;;;;;;6.47;4.43;;;15.70;51.30;;;;;;5079076;28;20499;-45
2022/04/21 08:39:20;;;;;;;5.07;4.60;;;15.60;51.20;;;;;;5077839;28;20464;-45
2022/04/21 08:41:51;;;;;;;6.27;4.97;;;15.60;51.20;;;;;;5078518;28;20487;-45
2022/04/21 08:44:19;;;;;;;8.13;4.50;;;15.60;51.00;;;;;;5078793;28;20561;-44
2022/04/21 08:46:49;;;;;;;6.90;4.90;;;15.70;51.90;;;;;;5080498;28;20474;-45
2022/04/21 08:49:19;;;;;;;5.83;4.80;;;15.60;51.20;;;;;;5081672;28;20979;-44
2022/04/21 08:51:46;;;;;;;4.70;4.30;;;15.40;51.10;;;;;;5084575;28;20506;-44
2022/04/21 08:54:12;;;;;;;5.17;4.67;;;15.30;51.40;;;;;;5076154;28;20460;-45
2022/04/21 08:56:40;;;;;;;4.90;4.40;;;15.20;52.00;;;;;;5079909;28;20469;-44
2022/04/21 08:59:07;;;;;;;5.67;4.50;;;15.20;52.60;;;;;;5081233;28;20461;-44
2022/04/21 09:01:34;;;;;;;4.20;3.90;;;15.30;52.20;;;;;;5073947;28;20464;-44
2022/04/21 09:04:01;;;;;;;6.83;5.33;;;15.40;52.50;;;;;;5080604;28;20870;-45
2022/04/21 09:06:29;;;;;;;5.37;4.23;;;15.50;51.80;;;;;;5082636;28;20953;-44
2022/04/21 09:09:22;;;;;;;4.37;3.97;;;15.40;51.40;;;;;;5080880;28;20464;-44
2022/04/21 09:11:51;;;;;;;6.30;4.40;;;15.50;52.80;;;;;;5080085;28;20615;-44
2022/04/21 09:14:18;;;;;;;4.50;3.90;;;15.50;52.90;;;;;;5075802;28;20969;-43
2022/04/21 09:16:45;;;;;;;7.27;5.50;;;15.50;52.80;;;;;;5075239;28;20472;-44
2022/04/21 09:19:13;;;;;;;5.60;4.60;;;15.60;53.40;;;;;;5076384;28;21052;-44
2022/04/21 09:21:41;;;;;;;8.30;4.70;;;15.70;53.20;;;;;;5076253;28;20533;-44
2022/04/21 09:24:25;;;;;;;7.90;4.80;;;15.60;51.70;;;;;;5075449;28;20468;-44
2022/04/21 09:26:55;;;;;;;5.13;3.83;;;15.40;51.70;;;;;;5078301;28;21004;-44
2022/04/21 09:29:33;;;;;;;6.20;4.60;;;15.40;52.30;;;;;;5075280;28;21007;-44
2022/04/21 09:32:02;;;;;;;4.57;3.80;;;15.50;53.00;;;;;;5080218;28;20579;-44
2022/04/21 09:34:37;;;;;;;4.97;4.50;;;15.50;52.60;;;;;;5079569;28;20456;-44
2022/04/21 09:37:06;;;;;;;5.80;4.50;;;15.50;51.70;;;;;;5078855;28;20465;-44
2022/04/21 09:39:39;;;;;;;10.10;4.70;;;15.50;51.50;;;;;;5083773;28;21027;-44
2022/04/21 09:42:06;;;;;;;5.60;4.63;;;15.60;51.50;;;;;;5072577;28;20966;-44
2022/04/21 09:47:27;;;;;;;4.90;4.23;;;16.40;50.20;;;;;;5079208;28;20440;-44
2022/04/21 09:49:54;;;;;;;7.70;4.80;;;16.60;48.80;;;;;;5078301;28;20564;-44
2022/04/21 09:52:27;;;;;;;7.33;3.93;;;16.80;48.60;;;;;;5073966;28;20463;-44
2022/04/21 09:54:55;;;;;;;4.63;4.23;;;17.00;48.10;;;;;;5075821;28;21034;-44
2022/04/21 09:57:32;;;;;;;7.03;4.47;;;17.00;47.90;;;;;;5075017;28;20490;-44
2022/04/21 09:59:59;;;;;;;5.23;4.20;;;17.30;48.00;;;;;;5075661;28;20552;-45
2022/04/21 10:02:30;;;;;;;3.93;3.53;;;17.60;47.20;;;;;;5076090;28;21150;-43
2022/04/21 10:04:58;;;;;;;9.70;3.80;;;18.10;46.70;;;;;;5076522;28;20993;-44
2022/04/21 10:07:26;;;;;;;5.40;3.70;;;18.60;47.20;;;;;;5083303;28;20874;-44
2022/04/21 10:09:54;;;;;;;4.77;4.20;;;19.10;44.90;;;;;;5081652;28;20520;-44
2022/04/21 10:12:22;;;;;;;6.00;3.40;;;19.50;43.80;;;;;;5078052;28;20533;-44
2022/04/21 10:14:51;;;;;;;4.87;3.77;;;19.80;44.00;;;;;;5078927;28;20506;-45
2022/04/21 10:17:18;;;;;;;5.77;4.10;;;20.30;45.00;;;;;;5079394;28;20868;-44
2022/04/21 10:19:52;;;;;;;5.77;4.67;;;20.60;43.50;;;;;;5078562;28;20465;-45
2022/04/21 10:22:27;;;;;;;4.33;3.47;;;20.70;41.90;;;;;;5078700;28;20449;-44
2022/04/21 10:24:56;;;;;;;4.13;3.63;;;20.80;40.90;;;;;;5076272;28;20459;-44
2022/04/21 10:27:46;;;;;;;4.07;2.93;;;20.70;41.00;;;;;;5072736;28;20461;-43
2022/04/21 10:30:21;;;;;;;3.60;3.30;;;20.70;42.20;;;;;;5080711;28;20823;-43
2022/04/21 10:32:56;;;;;;;3.50;2.80;;;20.60;40.70;;;;;;5076279;28;20953;-43
2022/04/21 10:35:23;;;;;;;2.57;2.37;;;20.40;40.80;;;;;;5079684;28;20456;-43
2022/04/21 10:38:14;;;;;;;3.10;2.80;;;20.30;38.90;;;;;;5078611;28;20473;-43
2022/04/21 10:41:03;;;;;;;13.00;3.20;;;20.10;41.20;;;;;;5073887;28;20464;-44
2022/04/21 10:43:48;;;;;;;4.53;3.30;;;20.00;42.10;;;;;;5076005;28;20476;-43
2022/04/21 10:46:21;;;;;;;5.47;3.10;;;19.80;42.60;;;;;;5076770;28;20460;-43
2022/04/21 10:48:49;;;;;;;2.60;2.40;;;19.60;41.10;;;;;;5073837;28;20465;-43
2022/04/21 10:57:28;;;;;;;3.60;3.00;;;19.20;40.60;;;;;;5078082;28;21076;-44
2022/04/21 11:00:01;;;;;;;5.20;4.20;;;19.30;41.80;;;;;;5074971;28;20467;-43
2022/04/21 11:02:46;;;;;;;3.30;3.00;;;19.30;41.80;;;;;;5078166;28;20870;-43
2022/04/21 11:05:22;;;;;;;4.47;3.30;;;19.40;42.30;;;;;;5077701;28;20472;-43
2022/04/21 11:07:59;;;;;;;6.07;3.70;;;19.70;41.10;;;;;;5075724;28;20453;-43
2022/04/21 11:10:38;;;;;;;5.03;3.47;;;20.00;41.10;;;;;;5090979;28;20469;-43
2022/04/21 11:13:07;;;;;;;4.10;3.50;;;20.10;41.00;;;;;;5077411;28;20486;-43
2022/04/21 11:15:39;;;;;;;5.70;4.00;;;20.20;40.90;;;;;;5091940;28;20607;-44
2022/04/21 11:18:41;;;;;;;4.90;3.50;;;20.20;40.00;;;;;;5081076;28;20481;-44
2022/04/21 11:21:23;;;;;;;6.07;4.07;;;20.20;40.40;;;;;;5034314;28;20467;-44
2022/04/21 11:23:50;;;;;;;3.80;3.40;;;20.50;41.60;;;;;;5074099;28;20457;-44
2022/04/21 11:26:17;;;;;;;4.30;3.80;;;20.70;41.80;;;;;;5075086;28;20460;-44
2022/04/21 11:28:45;;;;;;;3.70;3.40;;;20.80;40.80;;;;;;5073933;28;20456;-44
2022/04/21 11:31:13;;;;;;;3.77;3.40;;;20.80;40.20;;;;;;5074884;28;20494;-44
2022/04/21 11:33:40;;;;;;;3.60;2.93;;;20.80;40.20;;;;;;5076126;28;20920;-43
2022/04/21 11:36:09;;;;;;;4.47;3.90;;;20.80;40.10;;;;;;5075836;28;20954;-44
2022/04/21 11:38:41;;;;;;;3.43;2.47;;;20.90;40.40;;;;;;5074796;28;20942;-43
2022/04/21 11:41:09;;;;;;;4.10;2.93;;;21.00;41.80;;;;;;5076974;28;20455;-44
2022/04/21 11:43:37;;;;;;;2.80;2.60;;;21.10;41.50;;;;;;5075885;28;20556;-43
2022/04/21 11:46:06;;;;;;;2.93;2.43;;;21.10;40.30;;;;;;5074273;28;20828;-44
2022/04/21 11:48:40;;;;;;;4.00;3.30;;;21.10;40.70;;;;;;5078668;28;20522;-43
2022/04/21 11:51:09;;;;;;;6.93;2.80;;;21.20;40.00;;;;;;5077929;28;20470;-44
2022/04/21 11:53:41;;;;;;;3.10;2.80;;;21.20;39.40;;;;;;5076628;28;20539;-43
2022/04/21 11:56:09;;;;;;;4.03;2.80;;;21.00;38.60;;;;;;5077701;28;20468;-44
2022/04/21 11:58:44;;;;;;;3.60;2.83;;;20.80;38.90;;;;;;5079098;28;20512;-44
2022/04/21 12:06:57;;;;;;;6.83;2.90;;;20.80;41.90;;;;;;5077381;28;20556;-44
2022/04/21 12:09:26;;;;;;;3.67;3.23;;;20.40;40.70;;;;;;5078913;28;20962;-44
2022/04/21 12:11:58;;;;;;;9.30;3.50;;;20.40;41.00;;;;;;5077431;28;20467;-44
2022/04/21 12:14:26;;;;;;;3.83;3.27;;;20.50;42.80;;;;;;5078816;28;20868;-43
2022/04/21 12:17:03;;;;;;;2.77;2.53;;;20.60;42.10;;;;;;5081556;28;20705;-43
2022/04/21 12:19:32;;;;;;;4.87;3.43;;;20.70;40.90;;;;;;5079907;28;20579;-43
2022/04/21 12:22:11;;;;;;;3.40;3.00;;;20.90;41.10;;;;;;5079348;28;20443;-43
2022/04/21 12:24:45;;;;;;;3.07;2.77;;;20.90;41.40;;;;;;5079694;28;20457;-43
2022/04/21 12:27:22;;;;;;;4.00;2.50;;;20.90;40.40;;;;;;5079580;28;20463;-44
2022/04/21 12:29:54;;;;;;;7.47;2.80;;;20.70;40.20;;;;;;5085101;28;20464;-43
2022/04/21 12:32:29;;;;;;;3.17;2.80;;;20.90;41.20;;;;;;5079778;28;20484;-44
2022/04/21 12:34:59;;;;;;;6.70;3.10;;;21.00;41.40;;;;;;5077483;28;20477;-43
2022/04/21 12:37:27;;;;;;;8.37;3.37;;;21.00;40.80;;;;;;5079423;28;20491;-43
2022/04/21 12:39:55;;;;;;;2.90;2.70;;;20.90;40.40;;;;;;5076487;28;20516;-44
2022/04/21 12:42:43;;;;;;;6.03;3.80;;;20.90;41.90;;;;;;5081227;28;20523;-43
2022/04/21 12:45:11;;;;;;;3.57;3.27;;;21.00;41.90;;;;;;5078825;28;20529;-44
2022/04/21 12:47:50;;;;;;;3.23;3.00;;;21.10;42.80;;;;;;5075588;28;20456;-43
2022/04/21 12:50:24;;;;;;;4.43;3.63;;;21.10;41.50;;;;;;5079893;28;20446;-44
2022/04/21 12:52:51;;;;;;;3.70;3.40;;;21.10;42.40;;;;;;5077690;28;20970;-45
2022/04/21 12:55:27;;;;;;;3.87;3.40;;;21.20;42.80;;;;;;5079908;28;20464;-44
2022/04/21 12:58:10;;;;;;;3.13;2.93;;;21.30;43.20;;;;;;5081597;28;20461;-43
2022/04/21 13:00:45;;;;;;;3.47;3.13;;;21.30;42.30;;;;;;5077922;28;20563;-44
2022/04/21 13:03:14;;;;;;;3.73;3.43;;;21.30;41.10;;;;;;5078181;28;20497;-44
2022/04/21 13:05:45;;;;;;;3.47;3.13;;;21.20;41.10;;;;;;5082908;28;21140;-44
2022/04/21 13:08:12;;;;;;;3.70;3.33;;;21.20;41.80;;;;;;5079074;28;20540;-44
2022/04/21 13:10:39;;;;;;;3.50;3.20;;;21.20;41.60;;;;;;5076984;28;20512;-44
2022/04/21 13:13:06;;;;;;;6.23;3.63;;;21.00;41.50;;;;;;5077897;28;20978;-45
2022/04/21 13:15:42;;;;;;;6.90;3.10;;;21.00;42.40;;;;;;5081094;28;20450;-47
2022/04/21 13:18:09;;;;;;;10.37;3.60;;;20.90;42.80;;;;;;5081040;28;20497;-44
2022/04/21 13:23:24;;;;;;;4.77;3.77;;;21.00;43.30;;;;;;5077049;28;20676;-44
2022/04/21 13:25:51;;;;;;;3.90;3.00;;;21.00;41.70;;;;;;5079165;28;20549;-44
2022/04/21 13:28:37;;;;;;;6.83;3.70;;;20.90;42.20;;;;;;5079776;28;20468;-44
2022/04/21 13:33:50;;;;;;;9.20;4.30;;;20.80;42.30;;;;;;5076288;28;20526;-44
2022/04/21 13:36:18;;;;;;;5.13;3.70;;;20.70;41.80;;;;;;5078081;28;20494;-44
2022/04/21 13:38:45;;;;;;;4.63;2.93;;;20.60;43.00;;;;;;5078378;28;20493;-44
2022/04/21 13:41:12;;;;;;;5.13;2.43;;;20.60;42.80;;;;;;5079642;28;20454;-44
2022/04/21 13:43:38;;;;;;;3.47;3.10;;;20.70;43.70;;;;;;5076527;28;20448;-44
2022/04/21 13:46:26;;;;;;;4.47;3.10;;;20.80;42.40;;;;;;5079020;28;20453;-44
2022/04/21 13:48:53;;;;;;;5.10;3.40;;;20.90;42.40;;;;;;5078016;28;20457;-44
2022/04/21 13:51:20;;;;;;;3.23;2.93;;;20.90;42.00;;;;;;5079981;28;20461;-44
2022/04/21 13:53:46;;;;;;;3.10;2.50;;;20.70;41.70;;;;;;5078113;28;20563;-44
2022/04/21 13:56:13;;;;;;;5.57;2.63;;;20.80;42.20;;;;;;5080091;28;20464;-44